sensor_id;sensor_type;location;lat;lon;timestamp;temperature;humidity
64062;DHT22;50308;47.438;-1.528;2023-09-08T00:01:38;23.40;85.00
64062;DHT22;50308;47.438;-1.528;2023-09-08T00:04:04;23.40;86.00
64062;DHT22;50308;47.438;-1.528;2023-09-08T00:06:29;23.30;84.90
64062;DHT22;50308;47.438;-1.528;2023-09-08T00:08:55;23.40;85.00
64062;DHT22;50308;47.438;-1.528;2023-09-08T00:11:21;23.40;85.00
64062;DHT22;50308;47.438;-1.528;2023-09-08T00:13:46;23.30;85.00
64062;DHT22;50308;47.438;-1.528;2023-09-08T00:16:12;23.40;85.00
64062;DHT22;50308;47.438;-1.528;2023-09-08T00:18:38;23.30;85.00
64062;DHT22;50308;47.438;-1.528;2023-09-08T00:21:03;23.30;85.10
64062;DHT22;50308;47.438;-1.528;2023-09-08T00:23:29;23.30;85.10
64062;DHT22;50308;47.438;-1.528;2023-09-08T00:25:55;23.30;85.10
64062;DHT22;50308;47.438;-1.528;2023-09-08T00:28:20;23.30;85.10
64062;DHT22;50308;47.438;-1.528;2023-09-08T00:30:46;23.20;85.00
64062;DHT22;50308;47.438;-1.528;2023-09-08T00:33:11;23.30;85.10
64062;DHT22;50308;47.438;-1.528;2023-09-08T00:35:39;23.20;84.90
64062;DHT22;50308;47.438;-1.528;2023-09-08T00:38:04;23.20;84.90
64062;DHT22;50308;47.438;-1.528;2023-09-08T00:40:30;23.20;85.00
64062;DHT22;50308;47.438;-1.528;2023-09-08T00:42:56;23.20;85.10
64062;DHT22;50308;47.438;-1.528;2023-09-08T00:45:22;23.20;85.30
64062;DHT22;50308;47.438;-1.528;2023-09-08T00:47:48;23.20;85.20
64062;DHT22;50308;47.438;-1.528;2023-09-08T00:50:13;23.20;85.20
64062;DHT22;50308;47.438;-1.528;2023-09-08T00:52:39;23.20;85.30
64062;DHT22;50308;47.438;-1.528;2023-09-08T00:55:05;23.20;85.40
64062;DHT22;50308;47.438;-1.528;2023-09-08T00:57:31;23.20;85.40
64062;DHT22;50308;47.438;-1.528;2023-09-08T00:59:57;23.20;85.40
64062;DHT22;50308;47.438;-1.528;2023-09-08T01:02:23;23.20;85.60
64062;DHT22;50308;47.438;-1.528;2023-09-08T01:04:49;23.10;85.30
64062;DHT22;50308;47.438;-1.528;2023-09-08T01:07:16;23.10;85.40
64062;DHT22;50308;47.438;-1.528;2023-09-08T01:09:42;23.10;85.30
64062;DHT22;50308;47.438;-1.528;2023-09-08T01:12:08;23.10;85.50
64062;DHT22;50308;47.438;-1.528;2023-09-08T01:14:34;23.10;85.70
64062;DHT22;50308;47.438;-1.528;2023-09-08T01:16:59;23.10;85.60
64062;DHT22;50308;47.438;-1.528;2023-09-08T01:19:25;23.10;85.60
64062;DHT22;50308;47.438;-1.528;2023-09-08T01:27:21;23.00;85.50
64062;DHT22;50308;47.438;-1.528;2023-09-08T01:29:50;23.00;85.60
64062;DHT22;50308;47.438;-1.528;2023-09-08T01:32:16;23.00;85.70
64062;DHT22;50308;47.438;-1.528;2023-09-08T01:34:42;23.00;85.80
64062;DHT22;50308;47.438;-1.528;2023-09-08T01:37:08;23.00;85.80
64062;DHT22;50308;47.438;-1.528;2023-09-08T01:39:34;23.00;85.70
64062;DHT22;50308;47.438;-1.528;2023-09-08T01:42:01;23.00;85.70
64062;DHT22;50308;47.438;-1.528;2023-09-08T01:44:26;23.00;85.80
64062;DHT22;50308;47.438;-1.528;2023-09-08T01:46:52;23.00;85.80
64062;DHT22;50308;47.438;-1.528;2023-09-08T01:49:22;23.00;86.00
64062;DHT22;50308;47.438;-1.528;2023-09-08T01:51:48;23.00;86.00
64062;DHT22;50308;47.438;-1.528;2023-09-08T01:54:14;23.00;85.90
64062;DHT22;50308;47.438;-1.528;2023-09-08T01:56:39;23.10;86.00
64062;DHT22;50308;47.438;-1.528;2023-09-08T01:59:05;23.00;86.10
64062;DHT22;50308;47.438;-1.528;2023-09-08T02:01:31;23.00;86.10
64062;DHT22;50308;47.438;-1.528;2023-09-08T02:03:56;23.00;86.00
64062;DHT22;50308;47.438;-1.528;2023-09-08T02:06:22;23.00;86.10
64062;DHT22;50308;47.438;-1.528;2023-09-08T02:08:47;23.00;86.10
64062;DHT22;50308;47.438;-1.528;2023-09-08T02:11:13;23.00;86.10
64062;DHT22;50308;47.438;-1.528;2023-09-08T02:13:42;23.00;86.10
64062;DHT22;50308;47.438;-1.528;2023-09-08T02:16:12;23.00;86.00
64062;DHT22;50308;47.438;-1.528;2023-09-08T02:18:38;23.00;86.00
64062;DHT22;50308;47.438;-1.528;2023-09-08T02:21:03;23.00;87.10
64062;DHT22;50308;47.438;-1.528;2023-09-08T02:23:30;23.00;86.20
64062;DHT22;50308;47.438;-1.528;2023-09-08T02:25:55;23.00;86.30
64062;DHT22;50308;47.438;-1.528;2023-09-08T02:28:21;22.90;86.20
64062;DHT22;50308;47.438;-1.528;2023-09-08T02:30:46;22.90;86.30
64062;DHT22;50308;47.438;-1.528;2023-09-08T02:33:12;22.90;86.50
64062;DHT22;50308;47.438;-1.528;2023-09-08T02:35:39;22.90;86.40
64062;DHT22;50308;47.438;-1.528;2023-09-08T02:38:05;22.90;86.30
64062;DHT22;50308;47.438;-1.528;2023-09-08T02:40:31;22.90;87.30
64062;DHT22;50308;47.438;-1.528;2023-09-08T02:43:00;22.90;86.30
64062;DHT22;50308;47.438;-1.528;2023-09-08T02:45:25;22.90;86.40
64062;DHT22;50308;47.438;-1.528;2023-09-08T02:47:51;22.90;86.40
64062;DHT22;50308;47.438;-1.528;2023-09-08T02:50:17;22.90;86.40
64062;DHT22;50308;47.438;-1.528;2023-09-08T02:52:43;22.90;86.50
64062;DHT22;50308;47.438;-1.528;2023-09-08T02:55:09;22.90;86.40
64062;DHT22;50308;47.438;-1.528;2023-09-08T02:57:35;22.90;86.50
64062;DHT22;50308;47.438;-1.528;2023-09-08T03:00:00;22.90;86.40
64062;DHT22;50308;47.438;-1.528;2023-09-08T03:02:26;22.90;86.20
64062;DHT22;50308;47.438;-1.528;2023-09-08T03:04:52;22.80;86.10
64062;DHT22;50308;47.438;-1.528;2023-09-08T03:07:17;22.80;86.30
64062;DHT22;50308;47.438;-1.528;2023-09-08T03:09:43;22.80;86.20
64062;DHT22;50308;47.438;-1.528;2023-09-08T03:12:09;22.80;86.20
64062;DHT22;50308;47.438;-1.528;2023-09-08T03:14:35;22.80;86.30
64062;DHT22;50308;47.438;-1.528;2023-09-08T03:17:00;22.80;86.80
64062;DHT22;50308;47.438;-1.528;2023-09-08T03:19:26;22.80;86.40
64062;DHT22;50308;47.438;-1.528;2023-09-08T03:21:52;22.70;86.40
64062;DHT22;50308;47.438;-1.528;2023-09-08T03:24:18;22.70;86.30
64062;DHT22;50308;47.438;-1.528;2023-09-08T03:26:43;22.70;86.30
64062;DHT22;50308;47.438;-1.528;2023-09-08T03:29:09;22.70;86.30
64062;DHT22;50308;47.438;-1.528;2023-09-08T03:31:34;22.70;86.20
64062;DHT22;50308;47.438;-1.528;2023-09-08T03:34:00;22.70;86.30
64062;DHT22;50308;47.438;-1.528;2023-09-08T03:36:26;22.70;86.30
64062;DHT22;50308;47.438;-1.528;2023-09-08T03:38:51;22.60;86.30
64062;DHT22;50308;47.438;-1.528;2023-09-08T03:41:17;22.60;86.30
64062;DHT22;50308;47.438;-1.528;2023-09-08T03:43:43;22.60;86.40
64062;DHT22;50308;47.438;-1.528;2023-09-08T03:46:09;22.60;86.20
64062;DHT22;50308;47.438;-1.528;2023-09-08T03:48:34;22.60;86.20
64062;DHT22;50308;47.438;-1.528;2023-09-08T03:51:00;22.60;86.20
64062;DHT22;50308;47.438;-1.528;2023-09-08T03:53:26;22.60;86.30
64062;DHT22;50308;47.438;-1.528;2023-09-08T03:55:51;22.60;86.20
64062;DHT22;50308;47.438;-1.528;2023-09-08T03:58:17;22.50;86.00
64062;DHT22;50308;47.438;-1.528;2023-09-08T04:00:43;22.50;86.00
64062;DHT22;50308;47.438;-1.528;2023-09-08T04:03:08;22.50;86.10
64062;DHT22;50308;47.438;-1.528;2023-09-08T04:05:34;22.50;86.10
64062;DHT22;50308;47.438;-1.528;2023-09-08T04:08:00;22.50;86.10
64062;DHT22;50308;47.438;-1.528;2023-09-08T04:10:26;22.50;86.00
64062;DHT22;50308;47.438;-1.528;2023-09-08T04:12:52;22.40;85.90
64062;DHT22;50308;47.438;-1.528;2023-09-08T04:15:18;22.40;86.10
64062;DHT22;50308;47.438;-1.528;2023-09-08T04:17:43;22.40;86.20
64062;DHT22;50308;47.438;-1.528;2023-09-08T04:20:10;22.40;86.30
64062;DHT22;50308;47.438;-1.528;2023-09-08T04:22:36;22.40;86.20
64062;DHT22;50308;47.438;-1.528;2023-09-08T04:25:02;22.30;86.20
64062;DHT22;50308;47.438;-1.528;2023-09-08T04:27:28;22.30;86.30
64062;DHT22;50308;47.438;-1.528;2023-09-08T04:29:54;22.30;86.20
64062;DHT22;50308;47.438;-1.528;2023-09-08T04:32:19;22.30;86.20
64062;DHT22;50308;47.438;-1.528;2023-09-08T04:34:45;22.30;86.10
64062;DHT22;50308;47.438;-1.528;2023-09-08T04:37:11;22.30;86.20
64062;DHT22;50308;47.438;-1.528;2023-09-08T04:39:36;22.30;86.20
64062;DHT22;50308;47.438;-1.528;2023-09-08T04:42:05;22.30;86.20
64062;DHT22;50308;47.438;-1.528;2023-09-08T04:44:31;22.30;86.20
64062;DHT22;50308;47.438;-1.528;2023-09-08T04:46:56;22.20;86.20
64062;DHT22;50308;47.438;-1.528;2023-09-08T04:49:22;22.30;86.40
64062;DHT22;50308;47.438;-1.528;2023-09-08T04:51:48;22.20;86.40
64062;DHT22;50308;47.438;-1.528;2023-09-08T04:54:13;22.20;86.40
64062;DHT22;50308;47.438;-1.528;2023-09-08T04:56:39;22.20;86.50
64062;DHT22;50308;47.438;-1.528;2023-09-08T04:59:06;22.20;86.40
64062;DHT22;50308;47.438;-1.528;2023-09-08T05:01:31;22.20;86.40
64062;DHT22;50308;47.438;-1.528;2023-09-08T05:03:58;22.30;86.40
64062;DHT22;50308;47.438;-1.528;2023-09-08T05:06:25;22.20;86.30
64062;DHT22;50308;47.438;-1.528;2023-09-08T05:08:51;22.20;86.30
64062;DHT22;50308;47.438;-1.528;2023-09-08T05:11:16;22.20;86.50
64062;DHT22;50308;47.438;-1.528;2023-09-08T05:13:43;22.20;86.50
64062;DHT22;50308;47.438;-1.528;2023-09-08T05:16:08;22.30;87.70
64062;DHT22;50308;47.438;-1.528;2023-09-08T05:18:41;22.30;86.60
64062;DHT22;50308;47.438;-1.528;2023-09-08T05:21:07;22.30;86.50
64062;DHT22;50308;47.438;-1.528;2023-09-08T05:23:33;22.30;86.50
64062;DHT22;50308;47.438;-1.528;2023-09-08T05:25:59;22.40;86.50
64062;DHT22;50308;47.438;-1.528;2023-09-08T05:28:25;22.40;86.40
64062;DHT22;50308;47.438;-1.528;2023-09-08T05:30:52;22.40;86.40
64062;DHT22;50308;47.438;-1.528;2023-09-08T05:33:17;22.40;86.20
64062;DHT22;50308;47.438;-1.528;2023-09-08T05:35:44;22.40;86.10
64062;DHT22;50308;47.438;-1.528;2023-09-08T05:38:10;22.40;86.10
64062;DHT22;50308;47.438;-1.528;2023-09-08T05:40:36;22.40;86.10
64062;DHT22;50308;47.438;-1.528;2023-09-08T05:43:02;22.40;86.10
64062;DHT22;50308;47.438;-1.528;2023-09-08T05:45:27;22.40;86.00
64062;DHT22;50308;47.438;-1.528;2023-09-08T05:47:53;22.30;86.10
64062;DHT22;50308;47.438;-1.528;2023-09-08T05:50:19;22.30;86.20
64062;DHT22;50308;47.438;-1.528;2023-09-08T05:52:44;22.30;86.30
64062;DHT22;50308;47.438;-1.528;2023-09-08T05:55:10;22.30;86.60
64062;DHT22;50308;47.438;-1.528;2023-09-08T05:57:36;22.30;86.60
64062;DHT22;50308;47.438;-1.528;2023-09-08T06:00:03;22.30;86.60
64062;DHT22;50308;47.438;-1.528;2023-09-08T06:02:29;22.30;86.80
64062;DHT22;50308;47.438;-1.528;2023-09-08T06:04:55;22.30;86.80
64062;DHT22;50308;47.438;-1.528;2023-09-08T06:07:22;22.30;86.90
64062;DHT22;50308;47.438;-1.528;2023-09-08T06:09:47;22.40;86.90
64062;DHT22;50308;47.438;-1.528;2023-09-08T06:12:13;22.40;87.00
64062;DHT22;50308;47.438;-1.528;2023-09-08T06:14:39;22.40;87.00
64062;DHT22;50308;47.438;-1.528;2023-09-08T06:17:04;22.40;87.00
64062;DHT22;50308;47.438;-1.528;2023-09-08T06:19:30;22.40;87.00
64062;DHT22;50308;47.438;-1.528;2023-09-08T06:21:55;22.40;87.10
64062;DHT22;50308;47.438;-1.528;2023-09-08T06:24:21;22.40;87.10
64062;DHT22;50308;47.438;-1.528;2023-09-08T06:26:47;22.40;87.30
64062;DHT22;50308;47.438;-1.528;2023-09-08T06:29:12;22.50;87.20
64062;DHT22;50308;47.438;-1.528;2023-09-08T06:31:38;22.50;87.30
64062;DHT22;50308;47.438;-1.528;2023-09-08T06:34:04;22.50;87.30
64062;DHT22;50308;47.438;-1.528;2023-09-08T06:36:29;22.50;87.30
64062;DHT22;50308;47.438;-1.528;2023-09-08T06:38:55;22.50;87.30
64062;DHT22;50308;47.438;-1.528;2023-09-08T06:41:20;22.50;87.20
64062;DHT22;50308;47.438;-1.528;2023-09-08T06:43:48;22.60;87.10
64062;DHT22;50308;47.438;-1.528;2023-09-08T06:46:14;22.60;87.20
64062;DHT22;50308;47.438;-1.528;2023-09-08T06:48:39;22.60;87.20
64062;DHT22;50308;47.438;-1.528;2023-09-08T06:51:05;22.60;87.30
64062;DHT22;50308;47.438;-1.528;2023-09-08T06:53:31;22.60;87.50
64062;DHT22;50308;47.438;-1.528;2023-09-08T06:55:56;22.60;87.70
64062;DHT22;50308;47.438;-1.528;2023-09-08T06:58:22;22.70;87.60
64062;DHT22;50308;47.438;-1.528;2023-09-08T07:00:48;22.70;87.50
64062;DHT22;50308;47.438;-1.528;2023-09-08T07:03:15;22.70;87.50
64062;DHT22;50308;47.438;-1.528;2023-09-08T07:05:40;22.70;87.40
64062;DHT22;50308;47.438;-1.528;2023-09-08T07:08:06;22.80;87.50
64062;DHT22;50308;47.438;-1.528;2023-09-08T07:10:32;22.80;87.50
64062;DHT22;50308;47.438;-1.528;2023-09-08T07:12:58;22.80;87.60
64062;DHT22;50308;47.438;-1.528;2023-09-08T07:15:23;22.80;87.40
64062;DHT22;50308;47.438;-1.528;2023-09-08T07:17:49;22.80;87.40
64062;DHT22;50308;47.438;-1.528;2023-09-08T07:20:15;22.80;87.50
64062;DHT22;50308;47.438;-1.528;2023-09-08T07:22:40;22.90;87.60
64062;DHT22;50308;47.438;-1.528;2023-09-08T07:25:07;22.90;87.70
64062;DHT22;50308;47.438;-1.528;2023-09-08T07:27:34;22.90;87.70
64062;DHT22;50308;47.438;-1.528;2023-09-08T07:29:59;22.90;87.50
64062;DHT22;50308;47.438;-1.528;2023-09-08T07:32:25;22.90;87.70
64062;DHT22;50308;47.438;-1.528;2023-09-08T07:34:51;22.90;87.70
64062;DHT22;50308;47.438;-1.528;2023-09-08T07:37:21;22.90;87.70
64062;DHT22;50308;47.438;-1.528;2023-09-08T07:39:48;23.00;87.90
64062;DHT22;50308;47.438;-1.528;2023-09-08T07:42:14;23.00;87.90
64062;DHT22;50308;47.438;-1.528;2023-09-08T07:44:39;23.00;88.00
64062;DHT22;50308;47.438;-1.528;2023-09-08T07:47:05;23.00;87.90
64062;DHT22;50308;47.438;-1.528;2023-09-08T07:49:33;23.00;88.10
64062;DHT22;50308;47.438;-1.528;2023-09-08T07:51:59;23.00;87.90
64062;DHT22;50308;47.438;-1.528;2023-09-08T07:54:24;23.10;87.90
64062;DHT22;50308;47.438;-1.528;2023-09-08T07:56:50;23.00;87.90
64062;DHT22;50308;47.438;-1.528;2023-09-08T07:59:16;23.10;88.10
64062;DHT22;50308;47.438;-1.528;2023-09-08T08:01:41;23.10;88.10
64062;DHT22;50308;47.438;-1.528;2023-09-08T08:04:07;23.10;88.10
64062;DHT22;50308;47.438;-1.528;2023-09-08T08:06:33;23.10;88.10
64062;DHT22;50308;47.438;-1.528;2023-09-08T08:08:58;23.10;88.20
64062;DHT22;50308;47.438;-1.528;2023-09-08T08:11:24;23.10;88.10
64062;DHT22;50308;47.438;-1.528;2023-09-08T08:13:51;23.20;88.10
64062;DHT22;50308;47.438;-1.528;2023-09-08T08:16:16;23.20;88.00
64062;DHT22;50308;47.438;-1.528;2023-09-08T08:18:42;23.20;87.80
64062;DHT22;50308;47.438;-1.528;2023-09-08T08:21:08;23.20;87.90
64062;DHT22;50308;47.438;-1.528;2023-09-08T08:23:34;23.20;87.80
64062;DHT22;50308;47.438;-1.528;2023-09-08T08:26:00;23.20;87.80
64062;DHT22;50308;47.438;-1.528;2023-09-08T08:28:26;23.20;87.70
64062;DHT22;50308;47.438;-1.528;2023-09-08T08:30:52;23.20;87.60
64062;DHT22;50308;47.438;-1.528;2023-09-08T08:33:18;23.20;87.60
64062;DHT22;50308;47.438;-1.528;2023-09-08T08:35:52;23.20;87.60
64062;DHT22;50308;47.438;-1.528;2023-09-08T08:38:18;23.20;87.60
64062;DHT22;50308;47.438;-1.528;2023-09-08T08:40:44;23.20;87.40
64062;DHT22;50308;47.438;-1.528;2023-09-08T08:43:10;23.30;87.60
64062;DHT22;50308;47.438;-1.528;2023-09-08T08:45:37;23.20;87.30
64062;DHT22;50308;47.438;-1.528;2023-09-08T08:48:05;23.30;87.20
64062;DHT22;50308;47.438;-1.528;2023-09-08T08:50:32;23.20;86.80
64062;DHT22;50308;47.438;-1.528;2023-09-08T08:52:58;23.20;86.80
64062;DHT22;50308;47.438;-1.528;2023-09-08T08:55:25;23.20;86.60
64062;DHT22;50308;47.438;-1.528;2023-09-08T08:57:52;23.20;86.50
64062;DHT22;50308;47.438;-1.528;2023-09-08T09:00:18;23.20;86.50
64062;DHT22;50308;47.438;-1.528;2023-09-08T09:02:44;23.20;86.50
64062;DHT22;50308;47.438;-1.528;2023-09-08T09:05:13;23.30;86.60
64062;DHT22;50308;47.438;-1.528;2023-09-08T09:07:41;23.30;86.40
64062;DHT22;50308;47.438;-1.528;2023-09-08T09:10:07;23.20;86.20
64062;DHT22;50308;47.438;-1.528;2023-09-08T09:12:33;23.30;86.30
64062;DHT22;50308;47.438;-1.528;2023-09-08T09:14:59;23.30;86.20
64062;DHT22;50308;47.438;-1.528;2023-09-08T09:17:25;23.20;86.30
64062;DHT22;50308;47.438;-1.528;2023-09-08T09:20:14;23.30;86.30
64062;DHT22;50308;47.438;-1.528;2023-09-08T09:22:40;23.30;86.30
64062;DHT22;50308;47.438;-1.528;2023-09-08T09:25:06;23.30;86.20
64062;DHT22;50308;47.438;-1.528;2023-09-08T09:27:33;23.30;86.20
64062;DHT22;50308;47.438;-1.528;2023-09-08T09:30:03;23.30;86.20
64062;DHT22;50308;47.438;-1.528;2023-09-08T09:32:29;23.30;86.20
64062;DHT22;50308;47.438;-1.528;2023-09-08T09:34:57;23.30;86.20
64062;DHT22;50308;47.438;-1.528;2023-09-08T09:37:26;23.30;86.10
64062;DHT22;50308;47.438;-1.528;2023-09-08T09:39:53;23.30;86.10
64062;DHT22;50308;47.438;-1.528;2023-09-08T09:42:20;23.30;86.00
64062;DHT22;50308;47.438;-1.528;2023-09-08T09:44:49;23.30;86.10
64062;DHT22;50308;47.438;-1.528;2023-09-08T09:47:16;23.30;86.00
64062;DHT22;50308;47.438;-1.528;2023-09-08T09:49:43;23.30;86.00
64062;DHT22;50308;47.438;-1.528;2023-09-08T09:52:14;23.30;86.00
64062;DHT22;50308;47.438;-1.528;2023-09-08T09:54:45;23.40;86.00
64062;DHT22;50308;47.438;-1.528;2023-09-08T09:57:14;23.40;86.00
64062;DHT22;50308;47.438;-1.528;2023-09-08T09:59:43;23.40;85.90
64062;DHT22;50308;47.438;-1.528;2023-09-08T10:02:13;23.40;85.90
64062;DHT22;50308;47.438;-1.528;2023-09-08T10:04:40;23.40;86.00
64062;DHT22;50308;47.438;-1.528;2023-09-08T10:07:06;23.40;85.90
64062;DHT22;50308;47.438;-1.528;2023-09-08T10:09:32;23.40;85.90
64062;DHT22;50308;47.438;-1.528;2023-09-08T10:12:02;23.40;85.90
64062;DHT22;50308;47.438;-1.528;2023-09-08T10:14:31;23.40;85.80
64062;DHT22;50308;47.438;-1.528;2023-09-08T10:16:59;23.40;85.80
64062;DHT22;50308;47.438;-1.528;2023-09-08T10:19:26;23.40;85.80
64062;DHT22;50308;47.438;-1.528;2023-09-08T10:21:55;23.40;85.70
64062;DHT22;50308;47.438;-1.528;2023-09-08T10:24:28;23.40;85.80
64062;DHT22;50308;47.438;-1.528;2023-09-08T10:27:12;23.40;85.90
64062;DHT22;50308;47.438;-1.528;2023-09-08T10:29:38;23.50;85.80
64062;DHT22;50308;47.438;-1.528;2023-09-08T10:32:07;23.40;85.80
64062;DHT22;50308;47.438;-1.528;2023-09-08T10:34:35;23.40;85.70
64062;DHT22;50308;47.438;-1.528;2023-09-08T10:37:01;23.40;85.80
64062;DHT22;50308;47.438;-1.528;2023-09-08T10:39:35;23.40;85.80
64062;DHT22;50308;47.438;-1.528;2023-09-08T10:42:33;23.50;85.80
64062;DHT22;50308;47.438;-1.528;2023-09-08T10:45:00;23.50;86.00
64062;DHT22;50308;47.438;-1.528;2023-09-08T10:47:39;23.50;85.80
64062;DHT22;50308;47.438;-1.528;2023-09-08T10:50:07;23.50;85.90
64062;DHT22;50308;47.438;-1.528;2023-09-08T10:52:34;23.50;85.90
64062;DHT22;50308;47.438;-1.528;2023-09-08T10:55:01;23.50;85.90
64062;DHT22;50308;47.438;-1.528;2023-09-08T10:57:27;23.50;85.90
64062;DHT22;50308;47.438;-1.528;2023-09-08T11:04:57;23.50;85.70
64062;DHT22;50308;47.438;-1.528;2023-09-08T11:07:25;23.50;86.10
64062;DHT22;50308;47.438;-1.528;2023-09-08T11:09:50;23.50;86.10
64062;DHT22;50308;47.438;-1.528;2023-09-08T11:12:16;23.50;85.90
64062;DHT22;50308;47.438;-1.528;2023-09-08T11:14:43;23.50;85.90
64062;DHT22;50308;47.438;-1.528;2023-09-08T11:17:09;23.50;86.90
64062;DHT22;50308;47.438;-1.528;2023-09-08T11:19:48;23.50;85.80
64062;DHT22;50308;47.438;-1.528;2023-09-08T11:22:15;23.60;85.90
64062;DHT22;50308;47.438;-1.528;2023-09-08T11:24:42;23.50;85.90
64062;DHT22;50308;47.438;-1.528;2023-09-08T11:27:09;23.50;85.80
64062;DHT22;50308;47.438;-1.528;2023-09-08T11:29:35;23.60;85.80
64062;DHT22;50308;47.438;-1.528;2023-09-08T11:32:02;23.50;85.80
64062;DHT22;50308;47.438;-1.528;2023-09-08T11:34:29;23.60;85.70
64062;DHT22;50308;47.438;-1.528;2023-09-08T11:36:54;23.60;85.70
64062;DHT22;50308;47.438;-1.528;2023-09-08T11:39:25;23.60;85.80
64062;DHT22;50308;47.438;-1.528;2023-09-08T11:41:51;23.60;85.80
64062;DHT22;50308;47.438;-1.528;2023-09-08T11:44:18;23.60;85.70
64062;DHT22;50308;47.438;-1.528;2023-09-08T11:46:44;23.60;85.80
64062;DHT22;50308;47.438;-1.528;2023-09-08T11:49:11;23.60;85.60
64062;DHT22;50308;47.438;-1.528;2023-09-08T11:51:36;23.60;85.80
64062;DHT22;50308;47.438;-1.528;2023-09-08T11:54:03;23.60;85.70
64062;DHT22;50308;47.438;-1.528;2023-09-08T11:56:29;23.60;85.70
64062;DHT22;50308;47.438;-1.528;2023-09-08T11:58:55;23.60;86.70
64062;DHT22;50308;47.438;-1.528;2023-09-08T12:01:21;23.60;85.60
64062;DHT22;50308;47.438;-1.528;2023-09-08T12:03:55;23.60;85.50
64062;DHT22;50308;47.438;-1.528;2023-09-08T12:06:24;23.60;85.50
64062;DHT22;50308;47.438;-1.528;2023-09-08T12:08:50;23.60;85.60
64062;DHT22;50308;47.438;-1.528;2023-09-08T12:11:16;23.60;85.70
64062;DHT22;50308;47.438;-1.528;2023-09-08T12:13:42;23.60;85.60
64062;DHT22;50308;47.438;-1.528;2023-09-08T12:16:18;23.60;85.60
64062;DHT22;50308;47.438;-1.528;2023-09-08T12:18:44;23.60;85.60
64062;DHT22;50308;47.438;-1.528;2023-09-08T12:21:11;23.60;85.60
64062;DHT22;50308;47.438;-1.528;2023-09-08T12:23:50;23.60;85.60
64062;DHT22;50308;47.438;-1.528;2023-09-08T12:26:16;23.60;85.60
64062;DHT22;50308;47.438;-1.528;2023-09-08T12:28:43;23.60;85.50
64062;DHT22;50308;47.438;-1.528;2023-09-08T12:31:09;23.60;85.60
64062;DHT22;50308;47.438;-1.528;2023-09-08T12:33:35;23.60;85.60
64062;DHT22;50308;47.438;-1.528;2023-09-08T12:36:17;23.70;85.50
64062;DHT22;50308;47.438;-1.528;2023-09-08T12:38:52;23.60;85.50
64062;DHT22;50308;47.438;-1.528;2023-09-08T12:41:19;23.60;85.70
64062;DHT22;50308;47.438;-1.528;2023-09-08T12:43:45;23.70;85.60
64062;DHT22;50308;47.438;-1.528;2023-09-08T12:46:11;23.70;85.60
64062;DHT22;50308;47.438;-1.528;2023-09-08T12:48:37;23.70;85.50
64062;DHT22;50308;47.438;-1.528;2023-09-08T12:51:03;23.70;85.50
64062;DHT22;50308;47.438;-1.528;2023-09-08T12:53:33;23.70;85.50
64062;DHT22;50308;47.438;-1.528;2023-09-08T12:56:02;23.70;85.40
64062;DHT22;50308;47.438;-1.528;2023-09-08T12:58:28;23.70;85.50
64062;DHT22;50308;47.438;-1.528;2023-09-08T13:00:54;23.70;85.60
64062;DHT22;50308;47.438;-1.528;2023-09-08T13:03:20;23.70;85.50
64062;DHT22;50308;47.438;-1.528;2023-09-08T13:05:45;23.70;85.50
64062;DHT22;50308;47.438;-1.528;2023-09-08T13:08:11;23.70;85.50
64062;DHT22;50308;47.438;-1.528;2023-09-08T13:10:37;23.70;85.60
64062;DHT22;50308;47.438;-1.528;2023-09-08T13:13:03;23.70;85.50
64062;DHT22;50308;47.438;-1.528;2023-09-08T13:15:29;23.70;85.60
64062;DHT22;50308;47.438;-1.528;2023-09-08T13:17:55;23.70;85.50
64062;DHT22;50308;47.438;-1.528;2023-09-08T13:20:21;23.70;85.50
64062;DHT22;50308;47.438;-1.528;2023-09-08T13:22:58;23.70;85.50
64062;DHT22;50308;47.438;-1.528;2023-09-08T13:25:24;23.70;85.40
64062;DHT22;50308;47.438;-1.528;2023-09-08T13:27:49;23.80;85.40
64062;DHT22;50308;47.438;-1.528;2023-09-08T13:30:15;23.80;85.50
64062;DHT22;50308;47.438;-1.528;2023-09-08T13:32:42;23.70;85.40
64062;DHT22;50308;47.438;-1.528;2023-09-08T13:35:08;23.70;85.40
64062;DHT22;50308;47.438;-1.528;2023-09-08T13:37:34;23.80;85.40
64062;DHT22;50308;47.438;-1.528;2023-09-08T13:40:01;23.80;85.40
64062;DHT22;50308;47.438;-1.528;2023-09-08T13:42:26;23.70;85.40
64062;DHT22;50308;47.438;-1.528;2023-09-08T13:44:52;23.80;85.40
64062;DHT22;50308;47.438;-1.528;2023-09-08T13:47:18;23.70;85.20
64062;DHT22;50308;47.438;-1.528;2023-09-08T13:49:43;23.80;85.40
64062;DHT22;50308;47.438;-1.528;2023-09-08T13:52:09;23.70;85.30
64062;DHT22;50308;47.438;-1.528;2023-09-08T13:54:35;23.80;85.30
64062;DHT22;50308;47.438;-1.528;2023-09-08T13:57:02;23.80;85.30
64062;DHT22;50308;47.438;-1.528;2023-09-08T13:59:31;23.80;85.20
64062;DHT22;50308;47.438;-1.528;2023-09-08T14:01:57;23.80;85.20
64062;DHT22;50308;47.438;-1.528;2023-09-08T14:04:24;23.80;85.20
64062;DHT22;50308;47.438;-1.528;2023-09-08T14:06:50;23.80;85.10
64062;DHT22;50308;47.438;-1.528;2023-09-08T14:09:16;23.80;85.10
64062;DHT22;50308;47.438;-1.528;2023-09-08T14:11:41;23.80;85.20
64062;DHT22;50308;47.438;-1.528;2023-09-08T14:14:07;23.80;85.20
64062;DHT22;50308;47.438;-1.528;2023-09-08T14:16:33;23.80;85.10
64062;DHT22;50308;47.438;-1.528;2023-09-08T14:18:58;23.80;85.10
64062;DHT22;50308;47.438;-1.528;2023-09-08T14:21:24;23.80;85.00
64062;DHT22;50308;47.438;-1.528;2023-09-08T14:23:50;23.80;85.10
64062;DHT22;50308;47.438;-1.528;2023-09-08T14:26:15;23.90;85.00
64062;DHT22;50308;47.438;-1.528;2023-09-08T14:28:42;23.80;85.00
64062;DHT22;50308;47.438;-1.528;2023-09-08T14:31:08;23.90;85.10
64062;DHT22;50308;47.438;-1.528;2023-09-08T14:33:33;23.90;85.00
64062;DHT22;50308;47.438;-1.528;2023-09-08T14:35:59;23.90;85.20
64062;DHT22;50308;47.438;-1.528;2023-09-08T14:38:26;23.90;85.10
64062;DHT22;50308;47.438;-1.528;2023-09-08T14:41:01;23.80;85.00
64062;DHT22;50308;47.438;-1.528;2023-09-08T14:43:28;23.80;85.20
64062;DHT22;50308;47.438;-1.528;2023-09-08T14:45:55;23.90;85.20
64062;DHT22;50308;47.438;-1.528;2023-09-08T14:48:23;23.90;85.00
64062;DHT22;50308;47.438;-1.528;2023-09-08T14:50:48;23.90;85.00
64062;DHT22;50308;47.438;-1.528;2023-09-08T14:53:14;23.80;85.10
64062;DHT22;50308;47.438;-1.528;2023-09-08T14:55:40;23.80;85.20
64062;DHT22;50308;47.438;-1.528;2023-09-08T14:58:06;23.80;85.20
64062;DHT22;50308;47.438;-1.528;2023-09-08T15:00:32;23.80;85.30
64062;DHT22;50308;47.438;-1.528;2023-09-08T15:02:58;23.80;85.30
64062;DHT22;50308;47.438;-1.528;2023-09-08T15:05:23;23.80;85.20
64062;DHT22;50308;47.438;-1.528;2023-09-08T15:07:49;23.80;85.10
64062;DHT22;50308;47.438;-1.528;2023-09-08T15:10:15;23.80;85.20
64062;DHT22;50308;47.438;-1.528;2023-09-08T15:12:40;23.80;85.10
64062;DHT22;50308;47.438;-1.528;2023-09-08T15:15:07;23.80;85.10
64062;DHT22;50308;47.438;-1.528;2023-09-08T15:17:33;23.80;85.00
64062;DHT22;50308;47.438;-1.528;2023-09-08T15:19:58;23.90;85.10
64062;DHT22;50308;47.438;-1.528;2023-09-08T15:22:25;23.80;85.00